If you wish to contribute or participate in the discussions about articles you are invited to join SKYbrary as a registered user

 Actions

Fritzlar Air Base

From SKYbrary Wiki

ETHF
Airport
ICAO: ETHF
Summary
Name Fritzlar Air Base
Region Europe
Territory Germany DE.gif
Location Fritzlar, Hesse
Serving
Coordinates 51° 6' 51.00" N, 9° 17' 12.00" E
Runways
Designator Length Width Surface ROPS
12/30 1040 m3,412.073 ft
30 m98.425 ft
ASP /


METAR
Observation ETHF 112020Z 17003KT 3500 -SN BR BKN023 00/M00 Q1005 YLO
Station Fritzlar
Date/Time 11 December 2019 20:20:00
Wind direction 170°
Wind speed 03 kts
Lowest cloud amount broken clouds
Temperature 0°C
Dew point
Humidity 100%
QNH 1005 hPa
Weather condition n/a

Fritzlar Air Base

ICAO: ETHF IATA: FRZ

Description

Fritzlar Air Base is a military air field of the German Army Aviation Corps. It is located near the town of Fritzlar in northern Hesse, Germany.

Maps

Terrain

Loading map...

Airport Layout

Loading map...



Accidents & Serious Incidents at or in vicinity of ETHF

None on SKYbrary